Wilmington, IL (60481)

5:00 PM CDT on July 29, 2015 (GMT -0500)
Lavita Shores | | Change Station
CLOSE
Current Station
Personal Weather Station
Location: Wilmington, IL
Elevation: 558 ft
Nearby Weather Stations

Elev 558 ft 41.29 °N, 88.15 °W | Updated 8 minutes ago

Clear
Clear
88.2 °F
Feels Like 88 °F
N
9.9
Wind Variable Wind from West

Today
High -- | Low -- °F
--% Chance of Precip.
Yesterday
High -- | Low -- °F
Precip. -- in
5:44 AM 8:12 PM
Waxing Gibbous, 97% visible
Pressure 30.00 in
Visibility 10.0 miles
Clouds Clear
Heat Index 88 °F
Dew Point 59 °F
Humidity 38%
Rainfall 0.14 in
Snow Depth Not available.
UV 4 out of 12
Pollen .70 out of 12
Air Quality Not available.
Flu Activity Not available.
METAR KJOT 292155Z AUTO 27010G15KT 10SM CLR 29/14 A3000 RMK AO2 T02920144

More Conditions Fewer Conditions

Pressure 30.00 in
Visibility 10.0 miles
Clouds Clear
Heat Index 88 °F
Dew Point 59 °F
Humidity 38%
Rainfall 0.14 in
Snow Depth Not available.
UV 4 out of 12
Pollen .70 out of 12
Air Quality Not available.
Flu Activity Not available.
METAR KJOT 292155Z AUTO 27010G15KT 10SM CLR 29/14 A3000 RMK AO2 T02920144

More Conditions Fewer Conditions

10-Day Weather Forecast

×

Almanac

Astronomy

Jul. 29, 2015 Rise Set
Actual Time
Civil Twilight
Nautical Twilight
Astronomical Twilight
Moon
Length of Visible Light
Length of Day
Tomorrow will be .
, % of the Moon is Illuminated

Today's Extremes

State Highs State Lows

Community

WunderPhotos

Upload Photos

1,842,159 photos uploaded!

WunderBlogs® & News

Nearby

Air Quality

  Air Quality AQ Index Pollutant
Not available.

Snow Depth

Station Depth Elevation

Earthquake Activity

City Distance Mag. Time & Date
Minimum magnitude displayed is 2.5.

Coastal Water Temperatures

Place Temperature

Stations

Nearby Weather Stations

Station Location Temp. Windchill Dew Point Humidity Wind Precip. Elev Updated Type